createdAt,value
2023-02-15T00:01:53.686Z,19.50
2023-02-15T00:04:23.938Z,19.40
2023-02-15T00:06:54.115Z,19.30
2023-02-15T00:09:21.276Z,19.30
2023-02-15T00:11:51.303Z,19.20
2023-02-15T00:14:21.576Z,19.20
2023-02-15T00:16:50.417Z,19.10
2023-02-15T00:19:22.175Z,19.20
2023-02-15T00:21:50.128Z,19.20
2023-02-15T00:24:19.714Z,19.20
2023-02-15T00:26:48.373Z,19.40
2023-02-15T00:29:17.020Z,19.30
2023-02-15T00:31:44.379Z,19.30
2023-02-15T00:34:19.802Z,19.20
2023-02-15T00:36:47.367Z,19.10
2023-02-15T00:39:14.582Z,19.10
2023-02-15T00:41:41.672Z,19.20
2023-02-15T00:44:09.153Z,19.30
2023-02-15T00:46:36.603Z,19.30
2023-02-15T00:49:04.506Z,19.30
2023-02-15T00:51:32.057Z,19.40
2023-02-15T00:53:59.711Z,19.50
2023-02-15T00:56:26.850Z,19.40
2023-02-15T00:58:54.316Z,19.40
2023-02-15T01:01:22.579Z,19.30
2023-02-15T01:03:49.642Z,19.30
2023-02-15T01:06:17.860Z,19.40
2023-02-15T01:08:48.399Z,19.50
2023-02-15T01:11:23.466Z,19.50
2023-02-15T01:13:55.884Z,19.70
2023-02-15T01:16:24.386Z,19.80
2023-02-15T01:18:51.592Z,19.80
2023-02-15T01:21:21.691Z,19.80
2023-02-15T01:23:49.277Z,20.00
2023-02-15T01:26:17.583Z,20.00
2023-02-15T01:28:45.351Z,20.00
2023-02-15T01:31:18.473Z,20.10
2023-02-15T01:33:47.491Z,20.00
2023-02-15T01:36:15.303Z,19.80
2023-02-15T01:38:42.878Z,19.80
2023-02-15T01:41:25.629Z,19.90
2023-02-15T01:44:01.897Z,20.30
2023-02-15T01:46:39.369Z,20.50
2023-02-15T01:49:16.294Z,20.10
2023-02-15T01:51:46.680Z,20.40
2023-02-15T01:54:28.782Z,20.30
2023-02-15T01:57:05.811Z,20.00
2023-02-15T01:59:37.573Z,20.00
2023-02-15T02:02:08.549Z,19.90
2023-02-15T02:04:42.425Z,20.00
2023-02-15T02:07:13.488Z,19.90
2023-02-15T02:09:40.349Z,19.90
2023-02-15T02:12:10.114Z,19.90
2023-02-15T02:14:38.728Z,19.80
2023-02-15T02:17:35.185Z,19.80
2023-02-15T02:20:19.101Z,19.80
2023-02-15T02:23:18.501Z,19.70
2023-02-15T02:26:13.943Z,19.80
2023-02-15T02:29:15.121Z,19.80
2023-02-15T02:31:51.264Z,19.70
2023-02-15T02:34:26.941Z,19.50
2023-02-15T02:37:03.602Z,19.70
2023-02-15T02:39:34.670Z,19.70
2023-02-15T02:42:04.620Z,19.80
2023-02-15T02:45:12.315Z,19.90
2023-02-15T02:47:55.053Z,20.30
2023-02-15T02:50:29.208Z,20.10
2023-02-15T02:52:58.592Z,20.10
2023-02-15T02:55:40.688Z,20.10
2023-02-15T02:58:15.701Z,20.00
2023-02-15T03:00:51.002Z,20.00
2023-02-15T03:03:27.323Z,20.00
2023-02-15T03:05:58.477Z,20.10
2023-02-15T03:08:30.189Z,20.10
2023-02-15T03:11:00.717Z,19.90
2023-02-15T03:13:28.889Z,20.00
2023-02-15T03:16:16.492Z,19.90
2023-02-15T03:18:58.601Z,19.90
2023-02-15T03:21:33.571Z,19.90
2023-02-15T03:24:16.881Z,19.90
2023-02-15T03:26:48.259Z,19.70
2023-02-15T03:29:18.763Z,19.80
2023-02-15T03:31:52.256Z,19.70
2023-02-15T03:34:19.952Z,19.60
2023-02-15T03:37:18.959Z,19.60
2023-02-15T03:39:57.681Z,19.70
2023-02-15T03:42:33.289Z,19.60
2023-02-15T03:45:09.743Z,19.70
2023-02-15T03:47:40.775Z,19.60
2023-02-15T03:50:35.592Z,19.70
2023-02-15T03:53:06.163Z,19.60
2023-02-15T03:55:35.391Z,20.30
2023-02-15T03:58:21.041Z,19.80
2023-02-15T04:01:17.144Z,20.20
2023-02-15T04:03:52.954Z,20.20
2023-02-15T04:06:20.306Z,20.30
2023-02-15T04:09:05.941Z,20.60
2023-02-15T04:11:33.000Z,20.50
2023-02-15T04:14:19.988Z,20.30
2023-02-15T04:16:47.126Z,20.10
2023-02-15T04:19:32.855Z,20.20
2023-02-15T04:22:18.233Z,20.10
2023-02-15T04:25:04.159Z,20.00
2023-02-15T04:27:31.291Z,19.90
2023-02-15T04:29:58.380Z,19.70
2023-02-15T04:32:25.572Z,19.80
2023-02-15T04:34:52.655Z,19.70
2023-02-15T04:37:19.863Z,19.70
2023-02-15T04:39:47.014Z,19.70
2023-02-15T04:42:14.115Z,19.70
2023-02-15T04:44:41.119Z,19.80
2023-02-15T04:47:08.186Z,19.70
2023-02-15T04:49:35.332Z,19.70
2023-02-15T04:52:02.360Z,19.60
2023-02-15T04:54:29.554Z,19.80
2023-02-15T04:56:56.559Z,19.80
2023-02-15T04:59:23.610Z,19.70
2023-02-15T05:01:50.811Z,19.70
2023-02-15T05:04:18.090Z,19.70
2023-02-15T05:06:45.324Z,19.70
2023-02-15T05:09:13.469Z,19.90
2023-02-15T05:11:40.739Z,20.20
2023-02-15T05:14:08.318Z,20.30
2023-02-15T05:16:35.457Z,20.50
2023-02-15T05:19:02.734Z,20.30
2023-02-15T05:21:29.771Z,20.30
2023-02-15T05:23:56.840Z,20.10
2023-02-15T05:26:43.903Z,20.00
2023-02-15T05:29:11.767Z,19.90
2023-02-15T05:31:39.455Z,20.00
2023-02-15T05:34:06.781Z,19.80
2023-02-15T05:36:33.830Z,20.00
2023-02-15T05:39:01.007Z,20.10
2023-02-15T05:41:28.077Z,20.00
2023-02-15T05:43:57.932Z,20.10
2023-02-15T05:46:25.008Z,20.00
2023-02-15T05:48:52.039Z,19.90
2023-02-15T05:51:19.072Z,19.90
2023-02-15T05:53:46.206Z,19.90
2023-02-15T05:56:13.656Z,19.90
2023-02-15T05:58:42.673Z,19.80
2023-02-15T06:01:19.420Z,19.70
2023-02-15T06:03:47.362Z,19.70
2023-02-15T06:06:14.571Z,19.90
2023-02-15T06:08:42.263Z,20.00
2023-02-15T06:11:09.344Z,19.80
2023-02-15T06:13:38.769Z,19.70
2023-02-15T06:16:07.620Z,19.60
2023-02-15T06:18:35.069Z,19.50
2023-02-15T06:21:02.221Z,19.60
2023-02-15T06:23:29.657Z,19.60
2023-02-15T06:25:56.692Z,19.70
2023-02-15T06:28:23.881Z,19.60
2023-02-15T06:30:50.999Z,19.60
2023-02-15T06:33:18.136Z,19.50
2023-02-15T06:35:46.627Z,19.50
2023-02-15T06:38:13.676Z,19.50
2023-02-15T06:40:40.755Z,19.50
2023-02-15T06:43:08.011Z,19.80
2023-02-15T06:45:37.354Z,19.70
2023-02-15T06:48:04.657Z,19.70
2023-02-15T06:50:31.805Z,19.70
2023-02-15T06:52:59.787Z,19.60
2023-02-15T06:55:27.096Z,19.50
2023-02-15T06:57:54.128Z,19.50
2023-02-15T07:00:23.242Z,19.20
2023-02-15T07:02:58.999Z,19.30
2023-02-15T07:05:32.557Z,19.20
2023-02-15T07:08:00.182Z,18.80
2023-02-15T07:10:28.409Z,19.00
2023-02-15T07:12:55.675Z,18.60
2023-02-15T07:15:22.910Z,18.60
2023-02-15T07:17:50.342Z,18.40
2023-02-15T07:20:22.613Z,18.30
2023-02-15T07:22:50.672Z,18.10
2023-02-15T07:25:18.725Z,17.80
2023-02-15T07:27:46.165Z,17.70
2023-02-15T07:30:15.819Z,17.50
2023-02-15T07:33:11.065Z,17.40
2023-02-15T07:35:38.092Z,17.30
2023-02-15T07:38:05.224Z,17.20
2023-02-15T07:40:32.381Z,17.30
2023-02-15T07:43:00.299Z,17.30
2023-02-15T07:45:28.100Z,17.40
2023-02-15T07:47:55.383Z,17.50
2023-02-15T07:50:22.454Z,18.00
2023-02-15T07:52:49.572Z,18.20
2023-02-15T07:55:17.845Z,18.40
2023-02-15T07:57:46.573Z,18.40
2023-02-15T08:00:16.378Z,18.50
2023-02-15T08:02:43.986Z,18.20
2023-02-15T08:05:11.349Z,18.40
2023-02-15T08:07:38.434Z,18.40
2023-02-15T08:10:06.787Z,18.20
2023-02-15T08:12:33.810Z,18.10
2023-02-15T08:15:00.868Z,18.10
2023-02-15T08:17:27.964Z,18.00
2023-02-15T08:19:54.941Z,17.80
2023-02-15T08:22:21.969Z,17.80
2023-02-15T08:24:49.255Z,17.70
2023-02-15T08:27:17.287Z,17.70
2023-02-15T08:29:44.557Z,17.70
2023-02-15T08:32:13.306Z,17.60
2023-02-15T08:34:42.863Z,17.30
2023-02-15T08:37:10.488Z,17.20
2023-02-15T08:39:38.079Z,17.30
2023-02-15T08:42:05.357Z,17.20
2023-02-15T08:44:32.478Z,17.30
2023-02-15T08:47:05.029Z,17.40
2023-02-15T08:49:32.900Z,17.70
2023-02-15T08:52:00.841Z,17.50
2023-02-15T08:54:28.186Z,17.40
2023-02-15T08:56:55.600Z,17.40
2023-02-15T08:59:24.332Z,17.60
2023-02-15T09:01:54.834Z,17.40
2023-02-15T09:04:23.870Z,17.80
2023-02-15T09:06:52.049Z,17.80
2023-02-15T09:09:20.369Z,17.90
2023-02-15T09:11:52.383Z,17.40
2023-02-15T09:14:24.682Z,17.20
2023-02-15T09:16:53.892Z,17.20
2023-02-15T09:19:22.598Z,17.00
2023-02-15T09:21:50.291Z,16.80
2023-02-15T09:24:18.710Z,16.80
2023-02-15T09:26:47.907Z,16.70
2023-02-15T09:29:16.536Z,16.80
2023-02-15T09:31:51.173Z,16.60
2023-02-15T09:34:21.958Z,17.00
2023-02-15T09:36:50.334Z,16.70
2023-02-15T09:39:20.524Z,16.40
2023-02-15T09:41:56.500Z,16.20
2023-02-15T09:44:38.628Z,16.40
2023-02-15T09:47:28.373Z,17.10
2023-02-15T09:50:27.382Z,17.30
2023-02-15T09:53:17.565Z,17.60
2023-02-15T09:55:52.529Z,17.50
2023-02-15T09:58:37.678Z,17.50
2023-02-15T10:01:20.790Z,17.60
2023-02-15T10:04:05.945Z,17.80
2023-02-15T10:07:06.166Z,17.90
2023-02-15T10:09:46.329Z,17.80
2023-02-15T10:12:25.000Z,17.80
2023-02-15T10:15:18.074Z,17.90
2023-02-15T10:18:03.887Z,18.30
2023-02-15T10:20:42.570Z,18.00
2023-02-15T10:23:47.110Z,18.40
2023-02-15T10:26:39.214Z,18.90
2023-02-15T10:29:17.397Z,18.70
2023-02-15T10:31:47.718Z,18.80
2023-02-15T10:34:27.164Z,18.60
2023-02-15T10:36:54.208Z,19.10
2023-02-15T10:39:41.421Z,18.80
2023-02-15T10:42:13.951Z,19.00
2023-02-15T10:44:47.015Z,18.30
2023-02-15T10:47:26.218Z,18.40
2023-02-15T10:50:14.173Z,18.20
2023-02-15T10:53:11.606Z,18.20
2023-02-15T10:55:50.572Z,17.90
2023-02-15T10:58:26.935Z,17.80
2023-02-15T11:01:40.435Z,17.80
2023-02-15T11:04:40.831Z,17.60
2023-02-15T11:07:13.675Z,17.20
2023-02-15T11:09:46.377Z,17.10
2023-02-15T11:12:19.901Z,16.70
2023-02-15T11:15:00.171Z,16.90
2023-02-15T11:17:38.553Z,16.90
2023-02-15T11:20:31.795Z,16.70
2023-02-15T11:22:59.649Z,17.00
2023-02-15T11:25:35.588Z,17.30
2023-02-15T11:28:13.146Z,17.30
2023-02-15T11:30:48.106Z,17.50
2023-02-15T11:33:27.719Z,17.50
2023-02-15T11:36:08.952Z,17.90
2023-02-15T11:38:37.700Z,18.50
2023-02-15T11:41:20.305Z,19.00
2023-02-15T11:44:10.006Z,19.70
2023-02-15T11:46:38.375Z,19.50
2023-02-15T11:49:29.456Z,18.90
2023-02-15T11:51:58.439Z,19.00
2023-02-15T11:54:33.496Z,18.90
2023-02-15T11:57:34.146Z,18.70
2023-02-15T12:00:08.808Z,18.70
2023-02-15T12:02:38.648Z,18.70
2023-02-15T12:05:14.077Z,19.50
2023-02-15T12:07:49.624Z,19.40
2023-02-15T12:10:27.749Z,19.30
2023-02-15T12:13:14.484Z,19.20
2023-02-15T12:16:11.489Z,18.90
2023-02-15T12:18:41.671Z,18.80
2023-02-15T12:21:31.098Z,19.10
2023-02-15T12:24:16.082Z,19.70
2023-02-15T12:26:43.359Z,19.90
2023-02-15T12:29:35.608Z,20.30
2023-02-15T12:32:03.432Z,20.80
2023-02-15T12:34:40.696Z,20.30
2023-02-15T12:37:29.940Z,19.90
2023-02-15T12:40:00.047Z,19.90
2023-02-15T12:42:30.231Z,20.60
2023-02-15T12:45:03.474Z,20.20
2023-02-15T12:47:32.449Z,19.70
2023-02-15T12:50:12.160Z,19.70
2023-02-15T12:52:41.195Z,20.00
2023-02-15T12:55:24.194Z,20.20
2023-02-15T12:58:10.148Z,21.20
2023-02-15T13:00:38.535Z,21.30
2023-02-15T13:03:05.776Z,21.10
2023-02-15T13:05:38.119Z,21.60
2023-02-15T13:08:21.533Z,22.00
2023-02-15T13:11:06.363Z,22.00
2023-02-15T13:13:36.275Z,22.50
2023-02-15T13:16:10.882Z,22.70
2023-02-15T13:18:52.574Z,22.80
2023-02-15T13:21:27.915Z,22.60
2023-02-15T13:23:58.998Z,21.80
2023-02-15T13:26:27.672Z,21.50
2023-02-15T13:28:58.794Z,21.40
2023-02-15T13:31:28.949Z,21.70
2023-02-15T13:34:20.162Z,22.00
2023-02-15T13:37:07.991Z,22.20
2023-02-15T13:39:50.158Z,22.00
2023-02-15T13:42:25.873Z,22.70
2023-02-15T13:45:24.558Z,22.40
2023-02-15T13:48:03.880Z,22.70
2023-02-15T13:51:05.068Z,22.20
2023-02-15T13:54:04.430Z,22.30
2023-02-15T13:56:58.128Z,22.90
2023-02-15T14:00:02.282Z,24.00
2023-02-15T14:02:45.418Z,23.70
2023-02-15T14:05:30.434Z,24.10
2023-02-15T14:08:12.202Z,23.20
2023-02-15T14:10:48.165Z,22.80
2023-02-15T14:13:39.662Z,22.90
2023-02-15T14:16:25.540Z,22.90
2023-02-15T14:19:10.860Z,23.30
2023-02-15T14:22:01.876Z,23.30
2023-02-15T14:24:31.782Z,22.80
2023-02-15T14:27:44.272Z,23.10
2023-02-15T14:30:27.970Z,23.00
2023-02-15T14:33:15.429Z,23.30
2023-02-15T14:35:43.945Z,23.60
2023-02-15T14:38:11.008Z,23.60
2023-02-15T14:41:04.713Z,23.60
2023-02-15T14:43:54.304Z,23.30
2023-02-15T14:46:32.133Z,23.00
2023-02-15T14:49:28.710Z,22.50
2023-02-15T14:51:59.137Z,22.50
2023-02-15T14:54:26.152Z,22.40
2023-02-15T14:57:02.570Z,22.40
2023-02-15T14:59:58.316Z,22.00
2023-02-15T15:02:49.285Z,21.80
2023-02-15T15:05:31.035Z,21.60
2023-02-15T15:08:00.888Z,21.80
2023-02-15T15:10:38.989Z,21.90
2023-02-15T15:13:30.691Z,22.00
2023-02-15T15:16:18.026Z,22.30
2023-02-15T15:18:48.153Z,22.10
2023-02-15T15:21:47.366Z,22.10
2023-02-15T15:24:52.118Z,22.30
2023-02-15T15:27:47.087Z,22.20
2023-02-15T15:30:20.355Z,22.10
2023-02-15T15:32:57.018Z,22.20
2023-02-15T15:35:56.155Z,22.50
2023-02-15T15:38:46.498Z,22.60
2023-02-15T15:41:41.532Z,22.70
2023-02-15T15:44:43.233Z,22.50
2023-02-15T15:47:31.145Z,22.30
2023-02-15T15:50:00.541Z,21.80
2023-02-15T15:52:33.448Z,21.70
2023-02-15T15:55:13.987Z,21.60
2023-02-15T15:57:44.557Z,21.40
2023-02-15T16:00:47.883Z,21.10
2023-02-15T16:03:26.149Z,21.10
2023-02-15T16:05:56.774Z,21.20
2023-02-15T16:08:34.314Z,21.20
2023-02-15T16:11:15.142Z,21.50
2023-02-15T16:13:48.073Z,21.30
2023-02-15T16:16:22.524Z,21.30
2023-02-15T16:18:50.514Z,21.10
2023-02-15T16:21:24.428Z,20.90
2023-02-15T16:24:05.162Z,20.60
2023-02-15T16:27:11.627Z,20.60
2023-02-15T16:29:38.708Z,20.60
2023-02-15T16:32:20.702Z,20.70
2023-02-15T16:35:03.301Z,20.70
2023-02-15T16:37:37.876Z,20.70
2023-02-15T16:40:05.457Z,20.90
2023-02-15T16:42:32.625Z,20.90
2023-02-15T16:45:04.923Z,20.80
2023-02-15T16:47:34.783Z,20.80
2023-02-15T16:50:05.133Z,20.80
2023-02-15T16:52:32.893Z,20.70
2023-02-15T16:55:06.101Z,20.90
2023-02-15T16:57:39.168Z,20.80
2023-02-15T17:00:16.379Z,20.80
2023-02-15T17:03:04.888Z,21.20
2023-02-15T17:05:49.571Z,21.20
2023-02-15T17:08:18.252Z,21.20
2023-02-15T17:11:11.219Z,21.20
2023-02-15T17:13:38.805Z,21.20
2023-02-15T17:16:06.196Z,21.40
2023-02-15T17:18:47.167Z,21.40
2023-02-15T17:21:29.089Z,21.20
2023-02-15T17:24:05.474Z,21.20
2023-02-15T17:26:35.980Z,21.10
2023-02-15T17:29:15.711Z,21.50
2023-02-15T17:31:49.000Z,20.90
2023-02-15T17:34:41.359Z,20.80
2023-02-15T17:37:26.591Z,20.90
2023-02-15T17:39:54.281Z,21.00
2023-02-15T17:42:21.589Z,21.20
2023-02-15T17:44:50.034Z,21.70
2023-02-15T17:47:20.617Z,22.00
2023-02-15T17:49:50.252Z,22.10
2023-02-15T17:52:18.719Z,22.50
2023-02-15T17:55:04.858Z,22.70
2023-02-15T17:57:32.334Z,23.10
2023-02-15T18:00:20.157Z,23.10
2023-02-15T18:03:05.943Z,23.20
2023-02-15T18:05:51.807Z,23.40
2023-02-15T18:08:42.221Z,23.90
2023-02-15T18:11:30.067Z,25.20
2023-02-15T18:14:01.569Z,25.20
2023-02-15T18:16:33.538Z,25.10
2023-02-15T18:19:04.889Z,25.10
2023-02-15T18:21:33.995Z,25.10
2023-02-15T18:24:01.221Z,24.80
2023-02-15T18:26:29.389Z,24.30
2023-02-15T18:28:56.567Z,23.80
2023-02-15T18:31:24.835Z,23.00
2023-02-15T18:33:57.797Z,22.50
2023-02-15T18:36:32.678Z,22.20
2023-02-15T18:39:05.735Z,22.20
2023-02-15T18:41:34.968Z,22.70
2023-02-15T18:44:02.005Z,22.90
2023-02-15T18:46:29.099Z,22.60
2023-02-15T18:48:56.247Z,22.20
2023-02-15T18:51:24.101Z,21.90
2023-02-15T18:53:53.491Z,21.90
2023-02-15T18:56:23.411Z,22.00
2023-02-15T18:58:50.864Z,22.10
2023-02-15T19:01:22.683Z,21.90
2023-02-15T19:03:51.760Z,21.80
2023-02-15T19:06:23.766Z,21.70
2023-02-15T19:08:52.851Z,21.70
2023-02-15T19:11:23.379Z,21.70
2023-02-15T19:13:53.367Z,21.70
2023-02-15T19:16:29.626Z,21.70
2023-02-15T19:18:57.004Z,22.00
2023-02-15T19:21:25.324Z,22.00
2023-02-15T19:24:05.472Z,21.80
2023-02-15T19:26:45.736Z,21.90
2023-02-15T19:29:16.083Z,22.60
2023-02-15T19:31:43.447Z,23.10
2023-02-15T19:34:16.100Z,23.80
2023-02-15T19:36:50.004Z,24.40
2023-02-15T19:39:28.013Z,24.80
2023-02-15T19:41:55.673Z,24.60
2023-02-15T19:44:22.746Z,24.10
2023-02-15T19:46:49.844Z,23.90
2023-02-15T19:49:17.161Z,24.40
2023-02-15T19:51:44.449Z,24.50
2023-02-15T19:54:31.270Z,23.90
2023-02-15T19:57:00.131Z,23.90
2023-02-15T19:59:33.473Z,23.30
2023-02-15T20:02:00.796Z,23.10
2023-02-15T20:04:27.985Z,22.80
2023-02-15T20:06:58.250Z,23.50
2023-02-15T20:09:35.650Z,23.80
2023-02-15T20:12:02.892Z,24.40
2023-02-15T20:14:30.035Z,24.40
2023-02-15T20:16:57.136Z,24.10
2023-02-15T20:19:24.347Z,23.90
2023-02-15T20:21:51.960Z,24.50
2023-02-15T20:24:22.538Z,24.70
2023-02-15T20:26:50.057Z,24.40
2023-02-15T20:29:18.706Z,23.80
2023-02-15T20:31:46.300Z,23.30
2023-02-15T20:34:13.531Z,23.20
2023-02-15T20:36:41.439Z,23.10
2023-02-15T20:39:17.761Z,23.50
2023-02-15T20:41:48.061Z,23.50
2023-02-15T20:44:20.173Z,23.60
2023-02-15T20:46:48.023Z,24.30
2023-02-15T20:49:15.473Z,24.70
2023-02-15T20:51:44.573Z,24.40
2023-02-15T20:54:18.107Z,24.50
2023-02-15T20:56:46.517Z,24.60
2023-02-15T20:59:28.194Z,24.80
2023-02-15T21:02:02.433Z,25.00
2023-02-15T21:04:33.744Z,25.00
2023-02-15T21:07:01.198Z,25.30
2023-02-15T21:09:28.857Z,25.70
2023-02-15T21:11:58.544Z,25.90
2023-02-15T21:14:28.544Z,25.20
2023-02-15T21:16:55.866Z,24.20
2023-02-15T21:19:24.326Z,23.20
2023-02-15T21:21:54.104Z,23.00
2023-02-15T21:24:28.315Z,23.10
2023-02-15T21:27:00.742Z,23.40
2023-02-15T21:29:29.291Z,24.00
2023-02-15T21:32:00.632Z,24.10
2023-02-15T21:34:27.814Z,23.90
2023-02-15T21:36:55.089Z,24.00
2023-02-15T21:39:27.416Z,24.00
2023-02-15T21:42:15.615Z,23.50
2023-02-15T21:45:01.234Z,23.00
2023-02-15T21:47:49.916Z,22.50
2023-02-15T21:50:42.484Z,22.20
2023-02-15T21:53:32.180Z,22.90
2023-02-15T21:56:04.763Z,23.40
2023-02-15T21:58:35.618Z,23.20
2023-02-15T22:01:03.538Z,23.00
2023-02-15T22:03:34.160Z,22.50
2023-02-15T22:06:02.134Z,22.80
2023-02-15T22:08:29.269Z,23.90
2023-02-15T22:10:57.346Z,24.50
2023-02-15T22:13:30.227Z,24.00
2023-02-15T22:15:58.573Z,22.90
2023-02-15T22:18:30.816Z,22.20
2023-02-15T22:21:03.267Z,21.80
2023-02-15T22:23:30.891Z,22.20
2023-02-15T22:26:02.508Z,22.70
2023-02-15T22:28:34.903Z,22.80
2023-02-15T22:31:04.655Z,22.50
2023-02-15T22:33:34.099Z,22.40
2023-02-15T22:36:01.590Z,22.60
2023-02-15T22:38:29.012Z,23.50
2023-02-15T22:40:58.537Z,24.20
2023-02-15T22:43:39.217Z,24.10
2023-02-15T22:46:20.391Z,24.20
2023-02-15T22:48:50.546Z,25.30
2023-02-15T22:51:23.587Z,25.80
2023-02-15T22:53:52.689Z,25.00
2023-02-15T22:56:26.806Z,24.60
2023-02-15T22:59:11.161Z,24.50
2023-02-15T23:01:41.369Z,24.00
2023-02-15T23:04:19.128Z,23.80
2023-02-15T23:06:46.548Z,23.70
2023-02-15T23:09:14.459Z,23.10
2023-02-15T23:11:44.383Z,22.80
2023-02-15T23:14:29.189Z,22.80
2023-02-15T23:16:56.420Z,23.10
2023-02-15T23:19:23.508Z,23.70
2023-02-15T23:21:51.109Z,23.60
2023-02-15T23:24:24.157Z,24.00
2023-02-15T23:26:51.279Z,24.50
2023-02-15T23:29:24.862Z,24.50
2023-02-15T23:31:53.927Z,24.30
2023-02-15T23:34:29.409Z,23.60
2023-02-15T23:36:57.391Z,23.90
2023-02-15T23:39:45.128Z,24.00
2023-02-15T23:42:18.858Z,23.30
2023-02-15T23:44:47.128Z,23.00
2023-02-15T23:47:41.714Z,23.00
2023-02-15T23:50:27.210Z,23.30
2023-02-15T23:52:55.791Z,24.30
2023-02-15T23:55:35.380Z,24.20
2023-02-15T23:58:05.123Z,23.60
